sensor_id;sensor_type;location;lat;lon;timestamp;pressure;altitude;pressure_sealevel;temperature;humidity
8717;BME280;4395;48.554;8.820;2022-11-15T00:00:23;95681.09;;;8.79;100.00
8717;BME280;4395;48.554;8.820;2022-11-15T00:02:46;95424.38;;;6.59;100.00
8717;BME280;4395;48.554;8.820;2022-11-15T00:05:07;95485.41;;;7.41;100.00
8717;BME280;4395;48.554;8.820;2022-11-15T00:07:28;95682.72;;;8.80;100.00
8717;BME280;4395;48.554;8.820;2022-11-15T00:10:10;95594.13;;;8.14;100.00
8717;BME280;4395;48.554;8.820;2022-11-15T00:12:31;95679.72;;;8.76;100.00
8717;BME280;4395;48.554;8.820;2022-11-15T00:14:52;95680.69;;;8.70;100.00
8717;BME280;4395;48.554;8.820;2022-11-15T00:17:13;95674.78;;;8.68;100.00
8717;BME280;4395;48.554;8.820;2022-11-15T00:19:36;95436.28;;;6.97;100.00
8717;BME280;4395;48.554;8.820;2022-11-15T00:21:57;95638.53;;;8.44;100.00
8717;BME280;4395;48.554;8.820;2022-11-15T00:24:18;95614.84;;;8.35;100.00
8717;BME280;4395;48.554;8.820;2022-11-15T00:26:39;95739.47;;;8.77;100.00
8717;BME280;4395;48.554;8.820;2022-11-15T00:29:01;95677.13;;;8.81;100.00
8717;BME280;4395;48.554;8.820;2022-11-15T00:31:22;95677.13;;;8.81;100.00
8717;BME280;4395;48.554;8.820;2022-11-15T00:33:43;95585.78;;;8.11;100.00
8717;BME280;4395;48.554;8.820;2022-11-15T00:36:08;95115.72;;;4.89;100.00
8717;BME280;4395;48.554;8.820;2022-11-15T00:38:31;95668.50;;;8.79;100.00
8717;BME280;4395;48.554;8.820;2022-11-15T00:40:53;95664.69;;;8.75;100.00
8717;BME280;4395;48.554;8.820;2022-11-15T00:43:14;95664.13;;;8.73;100.00
8717;BME280;4395;48.554;8.820;2022-11-15T00:45:36;95597.97;;;8.35;100.00
8717;BME280;4395;48.554;8.820;2022-11-15T00:47:57;95631.38;;;8.49;100.00
8717;BME280;4395;48.554;8.820;2022-11-15T00:50:18;95636.38;;;7.95;100.00
8717;BME280;4395;48.554;8.820;2022-11-15T00:52:41;95654.09;;;8.63;100.00
8717;BME280;4395;48.554;8.820;2022-11-15T00:55:03;95670.09;;;8.58;100.00
8717;BME280;4395;48.554;8.820;2022-11-15T00:57:24;95536.88;;;7.65;100.00
8717;BME280;4395;48.554;8.820;2022-11-15T00:59:45;95429.16;;;7.02;100.00
8717;BME280;4395;48.554;8.820;2022-11-15T01:02:07;95654.28;;;8.40;100.00
8717;BME280;4395;48.554;8.820;2022-11-15T01:04:28;95646.63;;;8.32;100.00
8717;BME280;4395;48.554;8.820;2022-11-15T01:06:49;95498.69;;;7.36;100.00
8717;BME280;4395;48.554;8.820;2022-11-15T01:09:12;95649.69;;;8.24;100.00
8717;BME280;4395;48.554;8.820;2022-11-15T01:11:34;95643.22;;;8.20;100.00
8717;BME280;4395;48.554;8.820;2022-11-15T01:13:55;95714.75;;;8.24;100.00
8717;BME280;4395;48.554;8.820;2022-11-15T01:16:18;95086.22;;;4.27;100.00
8717;BME280;4395;48.554;8.820;2022-11-15T01:18:39;95637.94;;;8.25;100.00
8717;BME280;4395;48.554;8.820;2022-11-15T01:21:05;95627.66;;;8.33;100.00
8717;BME280;4395;48.554;8.820;2022-11-15T01:23:27;95634.63;;;8.34;100.00
8717;BME280;4395;48.554;8.820;2022-11-15T01:25:50;95625.13;;;8.27;100.00
8717;BME280;4395;48.554;8.820;2022-11-15T01:28:11;95648.59;;;8.36;100.00
8717;BME280;4395;48.554;8.820;2022-11-15T01:30:33;95598.44;;;8.15;100.00
8717;BME280;4395;48.554;8.820;2022-11-15T01:32:54;95628.13;;;8.47;100.00
8717;BME280;4395;48.554;8.820;2022-11-15T01:35:15;95392.41;;;6.93;100.00
8717;BME280;4395;48.554;8.820;2022-11-15T01:37:36;95381.22;;;6.79;100.00
8717;BME280;4395;48.554;8.820;2022-11-15T01:39:57;95623.34;;;8.49;100.00
8717;BME280;4395;48.554;8.820;2022-11-15T01:42:20;95051.03;;;4.89;100.00
8717;BME280;4395;48.554;8.820;2022-11-15T01:44:43;95581.91;;;8.01;100.00
8717;BME280;4395;48.554;8.820;2022-11-15T01:47:08;95671.13;;;8.57;100.00
8717;BME280;4395;48.554;8.820;2022-11-15T01:49:33;95630.88;;;8.52;100.00
8717;BME280;4395;48.554;8.820;2022-11-15T01:51:56;95632.25;;;8.55;100.00
8717;BME280;4395;48.554;8.820;2022-11-15T01:54:20;95292.16;;;6.40;100.00
8717;BME280;4395;48.554;8.820;2022-11-15T01:56:46;95613.53;;;8.38;100.00
8717;BME280;4395;48.554;8.820;2022-11-15T01:59:11;95603.47;;;8.12;100.00
8717;BME280;4395;48.554;8.820;2022-11-15T02:01:33;95599.16;;;8.11;100.00
8717;BME280;4395;48.554;8.820;2022-11-15T02:03:58;95931.19;;;8.16;100.00
8717;BME280;4395;48.554;8.820;2022-11-15T02:06:21;95605.50;;;8.38;100.00
8717;BME280;4395;48.554;8.820;2022-11-15T02:08:43;95603.97;;;8.42;100.00
8717;BME280;4395;48.554;8.820;2022-11-15T02:11:07;95696.78;;;8.53;100.00
8717;BME280;4395;48.554;8.820;2022-11-15T02:13:29;95458.50;;;7.64;100.00
8717;BME280;4395;48.554;8.820;2022-11-15T02:16:04;95594.53;;;8.56;100.00
8717;BME280;4395;48.554;8.820;2022-11-15T02:18:34;95591.94;;;8.45;100.00
8717;BME280;4395;48.554;8.820;2022-11-15T02:24:53;95606.56;;;8.76;100.00
8717;BME280;4395;48.554;8.820;2022-11-15T02:27:37;95571.34;;;8.12;100.00
8717;BME280;4395;48.554;8.820;2022-11-15T02:30:23;95585.75;;;8.61;100.00
8717;BME280;4395;48.554;8.820;2022-11-15T02:32:49;95626.66;;;8.56;100.00
8717;BME280;4395;48.554;8.820;2022-11-15T02:35:17;95308.50;;;6.43;100.00
8717;BME280;4395;48.554;8.820;2022-11-15T02:37:45;95567.28;;;8.43;100.00
8717;BME280;4395;48.554;8.820;2022-11-15T02:40:13;95569.41;;;8.41;100.00
8717;BME280;4395;48.554;8.820;2022-11-15T02:42:44;95398.97;;;7.02;100.00
8717;BME280;4395;48.554;8.820;2022-11-15T02:45:31;95406.56;;;7.10;100.00
8717;BME280;4395;48.554;8.820;2022-11-15T02:47:56;95527.19;;;8.31;100.00
8717;BME280;4395;48.554;8.820;2022-11-15T02:50:21;95550.84;;;8.56;100.00
8717;BME280;4395;48.554;8.820;2022-11-15T02:52:47;95545.31;;;8.62;100.00
8717;BME280;4395;48.554;8.820;2022-11-15T02:55:28;95548.19;;;8.78;100.00
8717;BME280;4395;48.554;8.820;2022-11-15T02:57:52;95023.72;;;5.38;100.00
8717;BME280;4395;48.554;8.820;2022-11-15T03:00:19;95539.97;;;8.84;100.00
8717;BME280;4395;48.554;8.820;2022-11-15T03:02:54;95460.69;;;8.23;100.00
8717;BME280;4395;48.554;8.820;2022-11-15T03:05:22;95533.16;;;8.98;100.00
8717;BME280;4395;48.554;8.820;2022-11-15T03:07:53;95537.47;;;8.99;100.00
8717;BME280;4395;48.554;8.820;2022-11-15T03:10:25;95380.50;;;7.89;100.00
8717;BME280;4395;48.554;8.820;2022-11-15T03:12:54;95538.31;;;9.05;100.00
8717;BME280;4395;48.554;8.820;2022-11-15T03:15:20;95551.16;;;9.03;100.00
8717;BME280;4395;48.554;8.820;2022-11-15T03:17:48;95549.03;;;9.05;100.00
8717;BME280;4395;48.554;8.820;2022-11-15T03:20:14;95425.00;;;8.34;100.00
8717;BME280;4395;48.554;8.820;2022-11-15T03:22:39;95241.50;;;6.95;100.00
8717;BME280;4395;48.554;8.820;2022-11-15T03:25:07;95394.19;;;8.15;100.00
8717;BME280;4395;48.554;8.820;2022-11-15T03:27:33;95530.72;;;8.97;100.00
8717;BME280;4395;48.554;8.820;2022-11-15T03:29:59;95531.47;;;8.92;100.00
8717;BME280;4395;48.554;8.820;2022-11-15T03:32:24;95526.38;;;8.91;100.00
8717;BME280;4395;48.554;8.820;2022-11-15T03:34:50;95525.56;;;8.90;100.00
8717;BME280;4395;48.554;8.820;2022-11-15T03:37:14;95519.94;;;8.92;100.00
8717;BME280;4395;48.554;8.820;2022-11-15T03:39:37;94746.00;;;4.09;100.00
8717;BME280;4395;48.554;8.820;2022-11-15T03:42:08;95082.81;;;6.14;100.00
8717;BME280;4395;48.554;8.820;2022-11-15T03:44:39;95516.16;;;8.88;100.00
8717;BME280;4395;48.554;8.820;2022-11-15T03:47:07;95509.97;;;8.87;100.00
8717;BME280;4395;48.554;8.820;2022-11-15T03:49:33;95455.88;;;8.63;100.00
8717;BME280;4395;48.554;8.820;2022-11-15T03:51:58;95352.56;;;8.02;100.00
8717;BME280;4395;48.554;8.820;2022-11-15T03:54:19;95045.06;;;6.05;100.00
8717;BME280;4395;48.554;8.820;2022-11-15T03:56:41;95113.25;;;6.52;100.00
8717;BME280;4395;48.554;8.820;2022-11-15T03:59:02;95562.31;;;8.51;100.00
8717;BME280;4395;48.554;8.820;2022-11-15T04:01:23;95718.03;;;8.93;100.00
8717;BME280;4395;48.554;8.820;2022-11-15T04:03:45;95505.44;;;8.88;100.00
8717;BME280;4395;48.554;8.820;2022-11-15T04:06:07;95499.56;;;8.91;100.00
8717;BME280;4395;48.554;8.820;2022-11-15T04:08:30;95492.34;;;8.91;100.00
8717;BME280;4395;48.554;8.820;2022-11-15T04:10:51;95412.78;;;8.43;100.00
8717;BME280;4395;48.554;8.820;2022-11-15T04:13:13;95269.72;;;7.47;100.00
8717;BME280;4395;48.554;8.820;2022-11-15T04:15:34;95508.66;;;8.90;100.00
8717;BME280;4395;48.554;8.820;2022-11-15T04:17:56;95414.75;;;8.31;100.00
8717;BME280;4395;48.554;8.820;2022-11-15T04:20:20;95486.94;;;8.86;100.00
8717;BME280;4395;48.554;8.820;2022-11-15T04:23:01;95499.81;;;8.89;100.00
8717;BME280;4395;48.554;8.820;2022-11-15T04:25:42;95535.84;;;8.98;100.00
8717;BME280;4395;48.554;8.820;2022-11-15T04:28:04;95494.31;;;9.01;100.00
8717;BME280;4395;48.554;8.820;2022-11-15T04:30:26;95500.00;;;9.05;100.00
8717;BME280;4395;48.554;8.820;2022-11-15T04:32:47;95497.88;;;9.07;100.00
8717;BME280;4395;48.554;8.820;2022-11-15T04:35:08;95496.56;;;9.09;100.00
8717;BME280;4395;48.554;8.820;2022-11-15T04:37:30;95494.94;;;9.08;100.00
8717;BME280;4395;48.554;8.820;2022-11-15T04:39:50;95486.34;;;9.06;100.00
8717;BME280;4395;48.554;8.820;2022-11-15T04:42:13;95302.91;;;7.89;100.00
8717;BME280;4395;48.554;8.820;2022-11-15T04:44:34;95474.19;;;8.98;100.00
8717;BME280;4395;48.554;8.820;2022-11-15T04:46:56;95319.53;;;7.91;100.00
8717;BME280;4395;48.554;8.820;2022-11-15T04:49:17;95479.41;;;9.10;100.00
8717;BME280;4395;48.554;8.820;2022-11-15T04:51:39;95413.56;;;8.65;100.00
8717;BME280;4395;48.554;8.820;2022-11-15T04:54:00;95401.72;;;8.61;100.00
8717;BME280;4395;48.554;8.820;2022-11-15T04:56:21;95486.34;;;9.06;100.00
8717;BME280;4395;48.554;8.820;2022-11-15T04:58:44;95433.44;;;8.69;100.00
8717;BME280;4395;48.554;8.820;2022-11-15T05:01:06;95469.25;;;9.12;100.00
8717;BME280;4395;48.554;8.820;2022-11-15T05:03:29;95477.84;;;9.14;100.00
8717;BME280;4395;48.554;8.820;2022-11-15T05:06:08;95476.72;;;9.10;100.00
8717;BME280;4395;48.554;8.820;2022-11-15T05:08:29;95475.63;;;9.06;100.00
8717;BME280;4395;48.554;8.820;2022-11-15T05:10:50;95315.03;;;7.97;100.00
8717;BME280;4395;48.554;8.820;2022-11-15T05:13:11;95463.28;;;9.05;100.00
8717;BME280;4395;48.554;8.820;2022-11-15T05:15:34;95457.81;;;8.95;100.00
8717;BME280;4395;48.554;8.820;2022-11-15T05:17:57;95466.97;;;8.99;100.00
8717;BME280;4395;48.554;8.820;2022-11-15T05:20:20;95463.97;;;8.95;100.00
8717;BME280;4395;48.554;8.820;2022-11-15T05:22:41;95456.69;;;8.91;100.00
8717;BME280;4395;48.554;8.820;2022-11-15T05:25:03;95448.56;;;8.59;100.00
8717;BME280;4395;48.554;8.820;2022-11-15T05:27:24;95248.88;;;7.27;100.00
8717;BME280;4395;48.554;8.820;2022-11-15T05:29:46;95253.19;;;7.50;100.00
8717;BME280;4395;48.554;8.820;2022-11-15T05:32:09;95449.13;;;8.61;100.00
8717;BME280;4395;48.554;8.820;2022-11-15T05:34:31;95375.78;;;8.18;100.00
8717;BME280;4395;48.554;8.820;2022-11-15T05:36:53;95440.78;;;8.57;100.00
8717;BME280;4395;48.554;8.820;2022-11-15T05:39:14;95447.88;;;8.68;100.00
8717;BME280;4395;48.554;8.820;2022-11-15T05:41:39;95274.03;;;7.69;100.00
8717;BME280;4395;48.554;8.820;2022-11-15T05:44:06;94782.34;;;4.20;100.00
8717;BME280;4395;48.554;8.820;2022-11-15T05:46:29;95384.94;;;8.44;100.00
8717;BME280;4395;48.554;8.820;2022-11-15T05:48:53;95447.78;;;8.85;100.00
8717;BME280;4395;48.554;8.820;2022-11-15T05:51:17;95442.44;;;8.85;100.00
8717;BME280;4395;48.554;8.820;2022-11-15T05:53:40;95441.31;;;8.81;100.00
8717;BME280;4395;48.554;8.820;2022-11-15T05:56:03;95440.50;;;8.81;100.00
8717;BME280;4395;48.554;8.820;2022-11-15T05:58:25;95137.44;;;6.84;100.00
8717;BME280;4395;48.554;8.820;2022-11-15T06:00:47;95383.44;;;8.31;100.00
8717;BME280;4395;48.554;8.820;2022-11-15T06:03:09;95441.91;;;8.61;100.00
8717;BME280;4395;48.554;8.820;2022-11-15T06:05:32;95433.31;;;8.59;100.00
8717;BME280;4395;48.554;8.820;2022-11-15T06:07:57;95443.97;;;8.54;100.00
8717;BME280;4395;48.554;8.820;2022-11-15T06:10:18;95451.38;;;8.47;100.00
8717;BME280;4395;48.554;8.820;2022-11-15T06:12:39;95335.78;;;7.68;100.00
8717;BME280;4395;48.554;8.820;2022-11-15T06:15:01;95451.38;;;8.47;100.00
8717;BME280;4395;48.554;8.820;2022-11-15T06:17:23;95460.91;;;8.38;100.00
8717;BME280;4395;48.554;8.820;2022-11-15T06:19:44;95449.09;;;8.34;100.00
8717;BME280;4395;48.554;8.820;2022-11-15T06:22:07;95450.94;;;8.33;100.00
8717;BME280;4395;48.554;8.820;2022-11-15T06:24:29;95373.28;;;7.90;100.00
8717;BME280;4395;48.554;8.820;2022-11-15T06:26:51;95452.31;;;8.36;100.00
8717;BME280;4395;48.554;8.820;2022-11-15T06:29:12;95453.13;;;8.36;100.00
8717;BME280;4395;48.554;8.820;2022-11-15T06:31:34;95457.75;;;8.41;100.00
8717;BME280;4395;48.554;8.820;2022-11-15T06:33:55;95456.44;;;8.44;100.00
8717;BME280;4395;48.554;8.820;2022-11-15T06:36:17;95257.31;;;7.19;100.00
8717;BME280;4395;48.554;8.820;2022-11-15T06:38:40;95463.47;;;8.50;100.00
8717;BME280;4395;48.554;8.820;2022-11-15T06:41:01;95458.38;;;8.48;100.00
8717;BME280;4395;48.554;8.820;2022-11-15T06:43:23;95463.22;;;8.51;100.00
8717;BME280;4395;48.554;8.820;2022-11-15T06:45:44;95468.56;;;8.51;100.00
8717;BME280;4395;48.554;8.820;2022-11-15T06:48:06;95462.09;;;8.47;100.00
8717;BME280;4395;48.554;8.820;2022-11-15T06:50:27;95472.50;;;8.44;100.00
8717;BME280;4395;48.554;8.820;2022-11-15T06:52:48;95471.19;;;8.46;100.00
8717;BME280;4395;48.554;8.820;2022-11-15T06:55:11;95471.75;;;8.48;100.00
8717;BME280;4395;48.554;8.820;2022-11-15T06:57:33;95471.19;;;8.46;100.00
8717;BME280;4395;48.554;8.820;2022-11-15T06:59:54;95463.16;;;8.46;100.00
8717;BME280;4395;48.554;8.820;2022-11-15T07:02:15;95457.81;;;8.46;100.00
8717;BME280;4395;48.554;8.820;2022-11-15T07:04:37;95462.41;;;8.51;100.00
8717;BME280;4395;48.554;8.820;2022-11-15T07:06:58;95471.56;;;8.55;100.00
8717;BME280;4395;48.554;8.820;2022-11-15T07:09:20;94884.34;;;4.88;100.00
8717;BME280;4395;48.554;8.820;2022-11-15T07:11:43;95279.16;;;7.32;100.00
8717;BME280;4395;48.554;8.820;2022-11-15T07:14:04;95462.53;;;8.61;100.00
8717;BME280;4395;48.554;8.820;2022-11-15T07:16:25;95462.91;;;8.69;100.00
8717;BME280;4395;48.554;8.820;2022-11-15T07:18:47;95464.50;;;8.70;100.00
8717;BME280;4395;48.554;8.820;2022-11-15T07:21:10;95465.47;;;8.59;100.00
8717;BME280;4395;48.554;8.820;2022-11-15T07:23:32;95464.91;;;8.35;100.00
8717;BME280;4395;48.554;8.820;2022-11-15T07:25:56;95469.69;;;8.55;100.00
8717;BME280;4395;48.554;8.820;2022-11-15T07:28:20;95467.38;;;8.64;100.00
8717;BME280;4395;48.554;8.820;2022-11-15T07:30:41;95473.06;;;8.67;100.00
8717;BME280;4395;48.554;8.820;2022-11-15T07:33:04;95464.97;;;8.62;100.00
8717;BME280;4395;48.554;8.820;2022-11-15T07:35:27;95454.91;;;8.75;100.00
8717;BME280;4395;48.554;8.820;2022-11-15T07:37:54;95453.66;;;8.82;100.00
8717;BME280;4395;48.554;8.820;2022-11-15T07:40:16;95456.38;;;8.87;100.00
8717;BME280;4395;48.554;8.820;2022-11-15T07:42:37;95407.22;;;8.50;100.00
8717;BME280;4395;48.554;8.820;2022-11-15T07:45:18;95458.41;;;9.02;100.00
8717;BME280;4395;48.554;8.820;2022-11-15T07:47:40;95456.34;;;9.09;100.00
8717;BME280;4395;48.554;8.820;2022-11-15T07:50:01;95170.50;;;7.21;100.00
8717;BME280;4395;48.554;8.820;2022-11-15T07:52:23;95454.63;;;8.98;100.00
8717;BME280;4395;48.554;8.820;2022-11-15T07:54:44;95453.91;;;9.08;100.00
8717;BME280;4395;48.554;8.820;2022-11-15T07:57:05;95453.47;;;9.16;100.00
8717;BME280;4395;48.554;8.820;2022-11-15T07:59:29;95452.66;;;9.15;100.00
8717;BME280;4395;48.554;8.820;2022-11-15T08:01:52;95450.97;;;9.09;100.00
8717;BME280;4395;48.554;8.820;2022-11-15T08:04:14;95348.25;;;8.45;100.00
8717;BME280;4395;48.554;8.820;2022-11-15T08:06:35;95451.94;;;8.98;100.00
8717;BME280;4395;48.554;8.820;2022-11-15T08:08:57;95483.56;;;8.74;100.00
8717;BME280;4395;48.554;8.820;2022-11-15T08:11:18;95456.78;;;8.74;100.00
8717;BME280;4395;48.554;8.820;2022-11-15T08:13:39;95452.75;;;9.25;100.00
8717;BME280;4395;48.554;8.820;2022-11-15T08:16:02;95338.50;;;8.87;100.00
8717;BME280;4395;48.554;8.820;2022-11-15T08:18:26;95395.53;;;9.47;100.00
8717;BME280;4395;48.554;8.820;2022-11-15T08:20:48;95452.44;;;9.91;100.00
8717;BME280;4395;48.554;8.820;2022-11-15T08:23:10;95403.88;;;9.92;100.00
8717;BME280;4395;48.554;8.820;2022-11-15T08:25:33;95152.53;;;7.87;100.00
8717;BME280;4395;48.554;8.820;2022-11-15T08:27:56;95446.84;;;10.40;100.00
8717;BME280;4395;48.554;8.820;2022-11-15T08:30:18;95445.59;;;10.57;100.00
8717;BME280;4395;48.554;8.820;2022-11-15T08:32:40;95331.97;;;9.99;100.00
8717;BME280;4395;48.554;8.820;2022-11-15T08:35:03;94833.81;;;6.03;100.00
8717;BME280;4395;48.554;8.820;2022-11-15T08:37:24;95438.16;;;10.80;100.00
8717;BME280;4395;48.554;8.820;2022-11-15T08:39:46;95433.34;;;10.92;100.00
8717;BME280;4395;48.554;8.820;2022-11-15T08:42:07;95133.66;;;9.15;100.00
8717;BME280;4395;48.554;8.820;2022-11-15T08:44:28;95186.91;;;9.59;100.00
8717;BME280;4395;48.554;8.820;2022-11-15T08:46:49;95422.09;;;11.25;100.00
8717;BME280;4395;48.554;8.820;2022-11-15T08:49:11;94566.97;;;5.29;100.00
8717;BME280;4395;48.554;8.820;2022-11-15T08:51:34;95054.56;;;9.13;100.00
8717;BME280;4395;48.554;8.820;2022-11-15T08:53:55;95148.31;;;9.75;100.00
8717;BME280;4395;48.554;8.820;2022-11-15T08:56:16;95392.50;;;11.36;100.00
8717;BME280;4395;48.554;8.820;2022-11-15T08:58:38;95460.31;;;11.58;100.00
8717;BME280;4395;48.554;8.820;2022-11-15T09:00:59;95421.56;;;11.69;100.00
8717;BME280;4395;48.554;8.820;2022-11-15T09:03:21;95418.34;;;11.77;100.00
8717;BME280;4395;48.554;8.820;2022-11-15T09:05:42;94776.38;;;7.76;100.00
8717;BME280;4395;48.554;8.820;2022-11-15T09:08:05;95283.31;;;11.14;100.00
8717;BME280;4395;48.554;8.820;2022-11-15T09:10:46;95411.28;;;12.17;100.00
8717;BME280;4395;48.554;8.820;2022-11-15T09:13:07;95347.78;;;11.90;100.00
8717;BME280;4395;48.554;8.820;2022-11-15T09:15:28;95403.63;;;12.49;100.00
8717;BME280;4395;48.554;8.820;2022-11-15T09:17:50;95452.09;;;12.60;100.00
8717;BME280;4395;48.554;8.820;2022-11-15T09:20:11;95409.91;;;12.84;100.00
8717;BME280;4395;48.554;8.820;2022-11-15T09:22:33;95402.59;;;12.89;100.00
8717;BME280;4395;48.554;8.820;2022-11-15T09:24:55;95411.47;;;12.95;100.00
8717;BME280;4395;48.554;8.820;2022-11-15T09:27:17;95394.19;;;12.96;100.00
8717;BME280;4395;48.554;8.820;2022-11-15T09:29:38;95359.03;;;12.72;100.00
8717;BME280;4395;48.554;8.820;2022-11-15T09:31:59;95408.72;;;13.10;100.00
8717;BME280;4395;48.554;8.820;2022-11-15T09:34:21;95404.16;;;13.06;100.00
8717;BME280;4395;48.554;8.820;2022-11-15T09:36:43;95375.38;;;12.86;100.00
8717;BME280;4395;48.554;8.820;2022-11-15T09:39:04;95345.78;;;12.76;100.00
8717;BME280;4395;48.554;8.820;2022-11-15T09:41:48;95393.84;;;13.13;100.00
8717;BME280;4395;48.554;8.820;2022-11-15T09:44:28;95403.28;;;13.15;100.00
8717;BME280;4395;48.554;8.820;2022-11-15T09:46:56;95387.38;;;13.19;100.00
8717;BME280;4395;48.554;8.820;2022-11-15T09:49:33;95344.56;;;12.97;100.00
8717;BME280;4395;48.554;8.820;2022-11-15T09:51:50;95384.38;;;13.21;100.00
8717;BME280;4395;48.554;8.820;2022-11-15T09:53:59;95382.22;;;13.23;100.00
8717;BME280;4395;48.554;8.820;2022-11-15T09:56:26;95375.97;;;13.27;100.00
8717;BME280;4395;48.554;8.820;2022-11-15T09:58:36;95389.44;;;13.32;100.00
8717;BME280;4395;48.554;8.820;2022-11-15T10:00:44;95220.81;;;11.63;100.00
8717;BME280;4395;48.554;8.820;2022-11-15T10:02:59;95385.59;;;13.38;100.00
8717;BME280;4395;48.554;8.820;2022-11-15T10:05:07;95083.81;;;11.07;100.00
8717;BME280;4395;48.554;8.820;2022-11-15T10:07:15;95382.81;;;13.48;100.00
8717;BME280;4395;48.554;8.820;2022-11-15T10:09:25;95388.97;;;13.54;100.00
8717;BME280;4395;48.554;8.820;2022-11-15T10:11:31;95377.06;;;13.60;100.00
8717;BME280;4395;48.554;8.820;2022-11-15T10:13:43;95379.22;;;13.58;100.00
8717;BME280;4395;48.554;8.820;2022-11-15T10:15:48;95367.88;;;12.78;100.00
8717;BME280;4395;48.554;8.820;2022-11-15T10:18:07;95371.69;;;13.55;100.00
8717;BME280;4395;48.554;8.820;2022-11-15T10:20:16;95367.06;;;13.61;100.00
8717;BME280;4395;48.554;8.820;2022-11-15T10:22:35;95361.38;;;13.62;100.00
8717;BME280;4395;48.554;8.820;2022-11-15T10:24:42;95356.91;;;13.13;100.00
8717;BME280;4395;48.554;8.820;2022-11-15T10:26:46;95358.91;;;13.37;100.00
8717;BME280;4395;48.554;8.820;2022-11-15T10:28:50;94939.34;;;10.79;100.00
8717;BME280;4395;48.554;8.820;2022-11-15T10:30:55;95359.63;;;13.47;100.00
8717;BME280;4395;48.554;8.820;2022-11-15T10:33:26;95363.97;;;13.43;100.00
8717;BME280;4395;48.554;8.820;2022-11-15T10:35:32;95408.84;;;13.34;100.00
8717;BME280;4395;48.554;8.820;2022-11-15T10:37:35;95350.03;;;13.31;100.00
8717;BME280;4395;48.554;8.820;2022-11-15T10:39:38;95356.19;;;13.37;100.00
8717;BME280;4395;48.554;8.820;2022-11-15T10:41:42;95355.13;;;13.38;100.00
8717;BME280;4395;48.554;8.820;2022-11-15T10:43:46;95363.50;;;13.36;100.00
8717;BME280;4395;48.554;8.820;2022-11-15T10:46:19;95350.03;;;13.31;100.00
8717;BME280;4395;48.554;8.820;2022-11-15T10:48:42;95246.34;;;12.69;100.00
8717;BME280;4395;48.554;8.820;2022-11-15T10:50:47;95350.84;;;13.32;100.00
8717;BME280;4395;48.554;8.820;2022-11-15T10:52:51;95346.56;;;13.26;100.00
8717;BME280;4395;48.554;8.820;2022-11-15T10:54:57;95350.69;;;13.18;100.00
8717;BME280;4395;48.554;8.820;2022-11-15T10:57:07;95349.31;;;13.21;100.00
8717;BME280;4395;48.554;8.820;2022-11-15T10:59:26;95337.72;;;13.15;100.00
8717;BME280;4395;48.554;8.820;2022-11-15T11:01:30;95335.03;;;13.20;100.00
8717;BME280;4395;48.554;8.820;2022-11-15T11:03:35;95333.09;;;13.26;100.00
8717;BME280;4395;48.554;8.820;2022-11-15T11:05:40;95330.72;;;13.19;100.00
8717;BME280;4395;48.554;8.820;2022-11-15T11:07:56;95253.25;;;12.46;100.00
8717;BME280;4395;48.554;8.820;2022-11-15T11:10:01;95321.53;;;13.20;100.00
8717;BME280;4395;48.554;8.820;2022-11-15T11:12:28;95186.66;;;12.13;100.00
8717;BME280;4395;48.554;8.820;2022-11-15T11:14:34;95313.97;;;13.22;100.00
8717;BME280;4395;48.554;8.820;2022-11-15T11:16:46;95306.09;;;13.26;100.00
8717;BME280;4395;48.554;8.820;2022-11-15T11:18:57;95310.88;;;13.34;100.00
8717;BME280;4395;48.554;8.820;2022-11-15T11:21:09;95308.72;;;13.36;100.00
8717;BME280;4395;48.554;8.820;2022-11-15T11:23:23;95409.09;;;13.38;100.00
8717;BME280;4395;48.554;8.820;2022-11-15T11:25:35;95295.88;;;13.51;100.00
8717;BME280;4395;48.554;8.820;2022-11-15T11:27:45;95297.72;;;13.56;100.00
8717;BME280;4395;48.554;8.820;2022-11-15T11:30:01;95294.41;;;13.64;100.00
8717;BME280;4395;48.554;8.820;2022-11-15T11:32:28;95286.31;;;13.64;100.00
8717;BME280;4395;48.554;8.820;2022-11-15T11:34:44;95289.56;;;13.61;100.00
8717;BME280;4395;48.554;8.820;2022-11-15T11:37:00;94970.25;;;11.65;100.00
8717;BME280;4395;48.554;8.820;2022-11-15T11:39:20;95295.91;;;13.75;100.00
8717;BME280;4395;48.554;8.820;2022-11-15T11:41:46;95281.78;;;13.83;100.00
8717;BME280;4395;48.554;8.820;2022-11-15T11:43:59;95284.41;;;13.89;100.00
8717;BME280;4395;48.554;8.820;2022-11-15T11:46:18;95276.88;;;13.86;100.00
8717;BME280;4395;48.554;8.820;2022-11-15T11:48:39;95175.56;;;13.22;100.00
8717;BME280;4395;48.554;8.820;2022-11-15T11:50:44;95273.66;;;13.83;100.00
8717;BME280;4395;48.554;8.820;2022-11-15T11:52:56;95272.56;;;13.84;100.00
8717;BME280;4395;48.554;8.820;2022-11-15T11:55:13;95269.34;;;13.82;100.00
8717;BME280;4395;48.554;8.820;2022-11-15T11:57:25;95195.88;;;13.38;100.00
8717;BME280;4395;48.554;8.820;2022-11-15T11:59:36;94983.53;;;11.51;100.00
8717;BME280;4395;48.554;8.820;2022-11-15T12:01:42;95022.75;;;12.30;100.00
8717;BME280;4395;48.554;8.820;2022-11-15T12:03:49;95268.56;;;13.82;100.00
8717;BME280;4395;48.554;8.820;2022-11-15T12:05:54;95265.09;;;13.76;100.00
8717;BME280;4395;48.554;8.820;2022-11-15T12:08:04;95257.19;;;13.85;100.00
8717;BME280;4395;48.554;8.820;2022-11-15T12:10:20;95257.84;;;13.96;100.00
8717;BME280;4395;48.554;8.820;2022-11-15T12:12:31;95202.16;;;13.57;100.00
8717;BME280;4395;48.554;8.820;2022-11-15T12:14:41;95259.47;;;13.97;100.00
8717;BME280;4395;48.554;8.820;2022-11-15T12:16:45;94514.19;;;9.22;100.00
8717;BME280;4395;48.554;8.820;2022-11-15T12:18:52;95254.81;;;14.02;100.00
8717;BME280;4395;48.554;8.820;2022-11-15T12:20:58;95252.34;;;14.06;100.00
8717;BME280;4395;48.554;8.820;2022-11-15T12:23:05;95121.19;;;13.33;100.00
8717;BME280;4395;48.554;8.820;2022-11-15T12:25:16;95147.41;;;13.51;100.00
8717;BME280;4395;48.554;8.820;2022-11-15T12:27:26;95240.44;;;14.26;100.00
8717;BME280;4395;48.554;8.820;2022-11-15T12:29:36;95233.59;;;14.33;100.00
8717;BME280;4395;48.554;8.820;2022-11-15T12:31:42;95239.28;;;14.32;100.00
8717;BME280;4395;48.554;8.820;2022-11-15T12:33:50;95237.19;;;14.47;100.00
8717;BME280;4395;48.554;8.820;2022-11-15T12:35:59;95235.81;;;14.50;100.00
8717;BME280;4395;48.554;8.820;2022-11-15T12:38:03;95240.06;;;14.56;100.00
8717;BME280;4395;48.554;8.820;2022-11-15T12:40:31;95167.13;;;14.13;100.00
8717;BME280;4395;48.554;8.820;2022-11-15T12:42:40;95314.09;;;14.36;100.00
8717;BME280;4395;48.554;8.820;2022-11-15T12:44:58;95140.59;;;13.78;100.00